Time;durP1;ratioP1;P1;durP2;ratioP2;P2;SDS_P1;SDS_P2;PMS_P1;PMS_P2;Temp;Humidity;BMP_temperature;BMP_pressure;BME280_temperature;BME280_humidity;BME280_pressure;Samples;Min_cycle;Max_cycle;Signal;HPM_P1;HPM_P2
2023/02/14 00:01:41;;;;;;;23.47;13.37;;;6.20;99.90;;;;;;5034824;28;20422;-71
2023/02/14 00:04:07;;;;;;;28.17;13.10;;;6.10;99.90;;;;;;5042585;28;20410;-71
2023/02/14 00:06:34;;;;;;;19.37;10.00;;;6.10;99.90;;;;;;5041363;28;20410;-71
2023/02/14 00:09:04;;;;;;;17.87;12.17;;;6.20;99.90;;;;;;5048187;28;20302;-71
2023/02/14 00:11:30;;;;;;;22.53;10.83;;;6.20;99.90;;;;;;5036632;28;20411;-71
2023/02/14 00:16:41;;;;;;;19.77;10.47;;;6.20;99.90;;;;;;5046405;28;20389;-71
2023/02/14 00:19:07;;;;;;;25.80;12.30;;;6.20;99.90;;;;;;5041617;28;20401;-71
2023/02/14 00:21:37;;;;;;;23.67;10.70;;;6.20;99.90;;;;;;5022630;28;20407;-70
2023/02/14 00:24:06;;;;;;;24.33;10.63;;;6.20;99.90;;;;;;5059198;22;20580;-65
2023/02/14 00:26:32;;;;;;;25.67;12.67;;;6.20;99.90;;;;;;5038394;28;20497;-66
2023/02/14 00:28:58;;;;;;;17.47;10.13;;;6.20;99.90;;;;;;5044223;28;20489;-65
2023/02/14 00:31:23;;;;;;;19.70;10.87;;;6.20;99.90;;;;;;5036244;28;20307;-65
2023/02/14 00:33:49;;;;;;;22.50;12.33;;;6.20;99.90;;;;;;5028784;28;20186;-66
2023/02/14 00:36:17;;;;;;;23.63;12.97;;;6.20;99.90;;;;;;5039381;28;20218;-67
2023/02/14 00:38:42;;;;;;;21.13;11.97;;;6.20;99.90;;;;;;5041136;28;20222;-66
2023/02/14 00:41:08;;;;;;;24.70;11.83;;;6.10;99.90;;;;;;5022744;28;20445;-66
2023/02/14 00:43:33;;;;;;;23.87;11.80;;;6.00;99.90;;;;;;5042199;28;20197;-65
2023/02/14 00:45:58;;;;;;;22.83;11.53;;;6.00;99.90;;;;;;5044649;28;20174;-65
2023/02/14 00:48:25;;;;;;;20.50;12.47;;;6.00;99.90;;;;;;5042044;28;20190;-66
2023/02/14 00:50:50;;;;;;;17.40;10.90;;;6.10;99.90;;;;;;5040507;28;20202;-66
2023/02/14 00:53:16;;;;;;;25.50;12.77;;;6.10;99.90;;;;;;5036815;28;20430;-66
2023/02/14 00:59:04;;;;;;;23.50;11.37;;;6.10;99.90;;;;;;5032112;28;20641;-66
2023/02/14 01:01:29;;;;;;;24.53;12.97;;;6.10;99.90;;;;;;5038963;28;20401;-66
2023/02/14 01:03:55;;;;;;;20.53;12.37;;;6.10;99.90;;;;;;5037586;28;20201;-66
2023/02/14 01:06:20;;;;;;;26.80;11.57;;;6.10;99.90;;;;;;5044453;28;20240;-66
2023/02/14 01:08:46;;;;;;;19.13;10.47;;;6.10;99.90;;;;;;5040122;28;20188;-66
2023/02/14 01:11:20;;;;;;;18.70;11.50;;;6.20;99.90;;;;;;5043924;28;20199;-66
2023/02/14 01:13:47;;;;;;;19.43;10.10;;;6.20;99.90;;;;;;5043803;28;20183;-66
2023/02/14 01:19:35;;;;;;;18.93;10.77;;;6.10;99.90;;;;;;5038111;28;20452;-66
2023/02/14 01:32:06;;;;;;;24.47;11.90;;;6.10;99.90;;;;;;5033232;28;20544;-65
2023/02/14 01:34:32;;;;;;;25.57;12.07;;;6.10;99.90;;;;;;5020144;28;20502;-66
2023/02/14 01:36:57;;;;;;;20.80;12.67;;;6.10;99.90;;;;;;5039455;28;20180;-66
2023/02/14 01:39:23;;;;;;;20.60;11.43;;;6.00;99.90;;;;;;5019052;28;20168;-65
2023/02/14 01:41:49;;;;;;;25.70;13.00;;;6.10;99.90;;;;;;5040092;28;20241;-65
2023/02/14 01:44:14;;;;;;;24.30;11.93;;;6.00;99.90;;;;;;5032125;28;20199;-66
2023/02/14 01:46:42;;;;;;;27.93;13.00;;;6.00;99.90;;;;;;5037391;28;20531;-65
2023/02/14 01:49:09;;;;;;;26.37;13.80;;;6.10;99.90;;;;;;5036410;28;20530;-66
2023/02/14 01:51:40;;;;;;;28.73;12.37;;;6.10;99.90;;;;;;5041965;28;20402;-67
2023/02/14 01:54:08;;;;;;;18.03;10.60;;;6.10;99.90;;;;;;5037867;28;20573;-66
2023/02/14 01:56:39;;;;;;;21.53;11.20;;;6.10;99.90;;;;;;5041358;28;20415;-65
2023/02/14 01:59:09;;;;;;;19.77;10.53;;;6.10;99.90;;;;;;5037956;28;20897;-66
2023/02/14 02:01:35;;;;;;;25.90;11.50;;;6.10;99.90;;;;;;5033512;28;20737;-66
2023/02/14 02:04:13;;;;;;;22.63;12.33;;;6.00;99.90;;;;;;5043336;28;20505;-66
2023/02/14 02:06:46;;;;;;;21.20;11.03;;;6.00;99.90;;;;;;5041571;28;20186;-65
2023/02/14 02:09:24;;;;;;;25.30;13.10;;;6.00;99.90;;;;;;5043396;28;20695;-66
2023/02/14 02:11:49;;;;;;;18.70;12.13;;;6.10;99.90;;;;;;5034423;28;20414;-66
2023/02/14 02:14:18;;;;;;;20.27;10.80;;;6.10;99.90;;;;;;5042484;28;20525;-67
2023/02/14 02:16:53;;;;;;;26.07;11.87;;;6.10;99.90;;;;;;5019979;28;20175;-66
2023/02/14 02:19:47;;;;;;;26.13;12.20;;;6.10;99.90;;;;;;5032977;28;20791;-66
2023/02/14 02:22:25;;;;;;;22.03;13.47;;;6.10;99.90;;;;;;5039507;28;20453;-65
2023/02/14 02:25:37;;;;;;;28.47;13.43;;;6.10;99.90;;;;;;5031412;28;20557;-67
2023/02/14 02:28:02;;;;;;;19.40;12.03;;;6.00;99.90;;;;;;5007189;28;20500;-66
2023/02/14 02:30:52;;;;;;;25.77;13.97;;;6.00;99.90;;;;;;5040634;28;20548;-67
2023/02/14 02:33:45;;;;;;;20.40;11.40;;;6.00;99.90;;;;;;5033338;28;20555;-65
2023/02/14 02:36:19;;;;;;;18.33;11.17;;;6.00;99.90;;;;;;5037822;28;20406;-66
2023/02/14 02:39:04;;;;;;;28.17;11.60;;;6.00;99.90;;;;;;5041145;28;20420;-66
2023/02/14 02:42:27;;;;;;;27.60;11.77;;;6.00;99.90;;;;;;5036476;28;20501;-66
2023/02/14 02:45:27;;;;;;;28.63;11.80;;;6.00;99.90;;;;;;5015223;28;20511;-66
2023/02/14 02:48:08;;;;;;;23.03;12.70;;;6.00;99.90;;;;;;5036069;28;20446;-66
2023/02/14 02:53:38;;;;;;;21.43;12.37;;;6.10;99.90;;;;;;5029017;28;20848;-65
2023/02/14 02:59:05;;;;;;;23.80;12.60;;;6.00;99.90;;;;;;5030238;28;20770;-65
2023/02/14 03:01:36;;;;;;;21.40;12.93;;;5.90;99.90;;;;;;5039638;28;20808;-66
2023/02/14 03:06:54;;;;;;;25.73;13.50;;;6.00;99.90;;;;;;5039007;28;20770;-65
2023/02/14 03:09:26;;;;;;;19.27;10.67;;;6.00;99.90;;;;;;5034583;28;20485;-66
2023/02/14 03:12:24;;;;;;;21.70;11.50;;;5.90;99.90;;;;;;5039663;28;20520;-66
2023/02/14 03:15:21;;;;;;;24.77;11.67;;;5.90;99.90;;;;;;5033349;28;20410;-66
2023/02/14 03:18:01;;;;;;;18.30;9.97;;;5.90;99.90;;;;;;5025419;28;20410;-66
2023/02/14 03:20:52;;;;;;;23.27;13.60;;;6.00;99.90;;;;;;5034980;28;20414;-66
2023/02/14 03:23:34;;;;;;;23.30;12.60;;;6.00;99.90;;;;;;5034267;28;20523;-66
2023/02/14 03:26:00;;;;;;;21.90;10.80;;;5.90;99.90;;;;;;5028059;28;20784;-66
2023/02/14 03:28:37;;;;;;;25.13;12.70;;;6.00;99.90;;;;;;5039608;28;20414;-66
2023/02/14 03:31:19;;;;;;;19.10;12.63;;;6.00;99.90;;;;;;5035242;28;20561;-66
2023/02/14 03:33:53;;;;;;;24.60;10.93;;;6.00;99.90;;;;;;5044995;28;20435;-66
2023/02/14 03:36:24;;;;;;;21.40;13.70;;;5.90;99.90;;;;;;5034311;28;20414;-66
2023/02/14 03:39:26;;;;;;;25.33;12.57;;;6.00;99.90;;;;;;5033976;28;20423;-66
2023/02/14 03:42:07;;;;;;;25.13;13.17;;;6.00;99.90;;;;;;4998948;28;20440;-66
2023/02/14 03:44:35;;;;;;;21.40;11.07;;;5.90;99.90;;;;;;5039767;28;20412;-66
2023/02/14 03:47:06;;;;;;;20.97;13.80;;;5.90;99.90;;;;;;5041593;28;20413;-66
2023/02/14 03:49:36;;;;;;;23.77;13.40;;;6.00;99.90;;;;;;5038943;28;20471;-66
2023/02/14 03:52:04;;;;;;;27.80;15.30;;;6.00;99.90;;;;;;5039257;28;20863;-66
2023/02/14 03:54:32;;;;;;;22.40;13.27;;;6.00;99.90;;;;;;5022741;28;20445;-66
2023/02/14 03:57:17;;;;;;;37.10;16.80;;;6.00;99.90;;;;;;5029900;28;20548;-65
2023/02/14 03:59:43;;;;;;;19.70;11.77;;;6.00;99.90;;;;;;5021691;28;20777;-65
2023/02/14 04:02:18;;;;;;;29.30;15.30;;;6.00;99.90;;;;;;5043320;28;20508;-65
2023/02/14 04:04:46;;;;;;;22.23;13.60;;;6.10;99.90;;;;;;5032828;28;20418;-65
2023/02/14 04:07:15;;;;;;;29.87;14.80;;;6.00;99.90;;;;;;5034907;28;20423;-67
2023/02/14 04:09:41;;;;;;;23.83;13.77;;;5.90;99.90;;;;;;5037646;28;21017;-65
2023/02/14 04:12:08;;;;;;;23.87;12.93;;;5.90;99.90;;;;;;5037835;28;20425;-65
2023/02/14 04:14:33;;;;;;;22.67;12.83;;;6.00;99.90;;;;;;5019825;28;20505;-65
2023/02/14 04:19:43;;;;;;;25.10;13.07;;;6.00;99.90;;;;;;5040575;28;20206;-67
2023/02/14 04:22:09;;;;;;;22.43;14.00;;;6.00;99.90;;;;;;5034944;28;20418;-65
2023/02/14 04:24:34;;;;;;;26.10;12.97;;;6.00;99.90;;;;;;5040447;28;20627;-65
2023/02/14 04:27:09;;;;;;;22.90;12.30;;;6.00;99.90;;;;;;5041129;28;20183;-66
2023/02/14 04:29:37;;;;;;;23.63;13.10;;;6.00;99.90;;;;;;5031613;28;20203;-66
2023/02/14 04:32:04;;;;;;;25.60;14.30;;;6.00;99.90;;;;;;5036114;28;20418;-66
2023/02/14 04:34:30;;;;;;;22.60;13.50;;;6.00;99.90;;;;;;5034268;28;20442;-65
2023/02/14 04:36:55;;;;;;;28.00;14.97;;;6.00;99.90;;;;;;5034280;28;20913;-65
2023/02/14 04:39:21;;;;;;;27.90;15.13;;;6.00;99.90;;;;;;5041149;28;20187;-65
2023/02/14 04:41:46;;;;;;;24.80;15.50;;;6.00;99.90;;;;;;5037964;28;20516;-66
2023/02/14 04:44:12;;;;;;;27.03;14.73;;;6.00;99.90;;;;;;5041671;28;20683;-66
2023/02/14 04:46:37;;;;;;;28.07;16.47;;;5.90;99.90;;;;;;5035211;28;20176;-66
2023/02/14 04:49:03;;;;;;;23.23;12.53;;;6.00;99.90;;;;;;5034720;28;20167;-66
2023/02/14 04:51:29;;;;;;;26.97;14.37;;;6.00;99.90;;;;;;5040336;28;20206;-66
2023/02/14 04:53:54;;;;;;;26.20;14.03;;;6.00;99.90;;;;;;5038164;28;20212;-66
2023/02/14 04:56:20;;;;;;;26.80;12.87;;;6.00;99.90;;;;;;5045481;28;20195;-66
2023/02/14 04:58:45;;;;;;;28.57;13.00;;;6.00;99.90;;;;;;5033333;28;20238;-66
2023/02/14 05:01:11;;;;;;;31.40;14.20;;;6.00;99.90;;;;;;5039132;28;20718;-66
2023/02/14 05:03:36;;;;;;;21.70;12.40;;;6.00;99.90;;;;;;5035422;28;20199;-66
2023/02/14 05:06:02;;;;;;;23.87;13.50;;;6.00;99.90;;;;;;5040276;28;20186;-66
2023/02/14 05:08:28;;;;;;;19.73;12.13;;;6.00;99.90;;;;;;5045984;28;20183;-66
2023/02/14 05:10:54;;;;;;;29.80;13.13;;;6.00;99.90;;;;;;5040751;28;20235;-66
2023/02/14 05:13:19;;;;;;;28.37;14.03;;;6.00;99.90;;;;;;5043955;28;20195;-66
2023/02/14 05:15:45;;;;;;;22.57;14.07;;;5.90;99.90;;;;;;5040842;28;20417;-65
2023/02/14 05:18:11;;;;;;;23.20;12.47;;;5.90;99.90;;;;;;5038769;28;20179;-66
2023/02/14 05:20:36;;;;;;;18.53;10.30;;;5.90;99.90;;;;;;5042283;28;20183;-65
2023/02/14 05:23:04;;;;;;;26.60;16.67;;;5.90;99.90;;;;;;5027155;28;20210;-65
2023/02/14 05:25:30;;;;;;;29.00;13.87;;;5.90;99.90;;;;;;5043888;28;20582;-65
2023/02/14 05:27:56;;;;;;;24.30;13.43;;;5.90;99.90;;;;;;5041776;28;20425;-65
2023/02/14 05:30:25;;;;;;;27.73;14.83;;;5.80;99.90;;;;;;5032153;28;20469;-65
2023/02/14 05:32:52;;;;;;;31.60;16.60;;;5.80;99.90;;;;;;5036834;28;20281;-65
2023/02/14 05:35:18;;;;;;;27.80;14.03;;;5.90;99.90;;;;;;5044938;28;20420;-65
2023/02/14 05:37:43;;;;;;;21.13;13.10;;;5.90;99.90;;;;;;5037289;28;20413;-65
2023/02/14 05:40:12;;;;;;;24.63;13.70;;;6.00;99.90;;;;;;5031942;28;20175;-65
2023/02/14 05:42:38;;;;;;;32.53;14.70;;;6.00;99.90;;;;;;5028026;28;20282;-66
2023/02/14 05:45:04;;;;;;;30.53;14.83;;;5.90;99.90;;;;;;5039884;28;20435;-66
2023/02/14 05:47:30;;;;;;;26.83;15.87;;;5.90;99.90;;;;;;5032255;28;20418;-66
2023/02/14 05:49:55;;;;;;;29.93;13.37;;;5.90;99.90;;;;;;5042904;28;20460;-66
2023/02/14 05:52:21;;;;;;;23.83;13.97;;;6.00;99.90;;;;;;5031801;28;20575;-66
2023/02/14 05:54:46;;;;;;;28.83;11.80;;;6.00;99.90;;;;;;5044298;28;20172;-66
2023/02/14 05:57:13;;;;;;;27.97;14.77;;;6.00;99.90;;;;;;5039437;28;20298;-66
2023/02/14 05:59:38;;;;;;;27.20;15.00;;;6.00;99.90;;;;;;5045121;28;20492;-66
2023/02/14 06:02:04;;;;;;;27.97;15.37;;;6.00;99.90;;;;;;5039625;28;20414;-66
2023/02/14 06:04:29;;;;;;;25.80;13.20;;;6.00;99.90;;;;;;5038286;28;20195;-66
2023/02/14 06:06:55;;;;;;;25.00;14.73;;;6.00;99.90;;;;;;5046634;28;20270;-66
2023/02/14 06:09:21;;;;;;;27.67;15.60;;;6.00;99.90;;;;;;5039587;28;20255;-66
2023/02/14 06:11:46;;;;;;;28.97;14.70;;;6.00;99.90;;;;;;5042412;28;20171;-65
2023/02/14 06:14:12;;;;;;;29.90;16.10;;;6.00;99.90;;;;;;5042448;28;20191;-66
2023/02/14 06:16:37;;;;;;;24.43;13.83;;;6.00;99.90;;;;;;5032743;28;20193;-66
2023/02/14 06:19:03;;;;;;;24.50;14.80;;;6.00;99.90;;;;;;5039572;28;20171;-65
2023/02/14 06:21:29;;;;;;;23.43;13.67;;;6.00;99.90;;;;;;5040368;28;20176;-67
2023/02/14 06:23:54;;;;;;;24.60;14.33;;;6.00;99.90;;;;;;5046786;28;20207;-66
2023/02/14 06:26:20;;;;;;;27.10;14.57;;;6.00;99.90;;;;;;5034023;28;20179;-66
2023/02/14 06:28:45;;;;;;;29.37;14.83;;;6.10;99.90;;;;;;5062920;22;20207;-73
2023/02/14 06:31:16;;;;;;;30.23;16.03;;;6.00;99.90;;;;;;5033278;28;20195;-72
2023/02/14 06:33:41;;;;;;;27.90;16.23;;;6.10;99.90;;;;;;5027633;28;20620;-75
2023/02/14 06:36:07;;;;;;;33.77;14.80;;;6.00;99.90;;;;;;5045164;28;20437;-72
2023/02/14 06:38:33;;;;;;;25.33;15.47;;;5.90;99.90;;;;;;5042581;28;20218;-72
2023/02/14 06:41:03;;;;;;;31.57;14.77;;;5.90;99.90;;;;;;5044965;28;20474;-73
2023/02/14 06:43:29;;;;;;;25.90;14.40;;;6.00;99.90;;;;;;5040888;28;20179;-75
2023/02/14 06:45:55;;;;;;;30.50;16.03;;;6.00;99.90;;;;;;5044660;28;20743;-73
2023/02/14 06:48:20;;;;;;;22.60;12.50;;;6.00;99.90;;;;;;5043642;28;20199;-73
2023/02/14 06:50:46;;;;;;;27.20;14.07;;;6.10;99.90;;;;;;5043742;28;20598;-74
2023/02/14 06:53:12;;;;;;;25.07;12.73;;;6.10;99.90;;;;;;5025729;28;20171;-73
2023/02/14 06:55:37;;;;;;;27.03;17.93;;;6.00;99.90;;;;;;5041966;28;20407;-73
2023/02/14 06:58:03;;;;;;;29.60;16.60;;;6.00;99.90;;;;;;5038432;28;20268;-73
2023/02/14 07:00:29;;;;;;;26.50;14.40;;;6.00;99.90;;;;;;5040767;28;20182;-75
2023/02/14 07:02:54;;;;;;;24.27;14.00;;;6.10;99.90;;;;;;5043776;28;20548;-73
2023/02/14 07:05:20;;;;;;;31.57;13.73;;;6.10;99.90;;;;;;5039272;28;20490;-72
2023/02/14 07:07:46;;;;;;;29.67;15.17;;;6.10;99.90;;;;;;5039600;28;20249;-71
2023/02/14 07:10:13;;;;;;;25.77;11.77;;;6.10;99.90;;;;;;5032455;28;20571;-72
2023/02/14 07:12:39;;;;;;;30.57;14.50;;;6.10;99.90;;;;;;5042371;28;20774;-73
2023/02/14 07:15:07;;;;;;;34.50;14.57;;;6.10;99.90;;;;;;5043834;28;20411;-73
2023/02/14 07:17:32;;;;;;;26.93;16.70;;;6.10;99.90;;;;;;5038707;28;20222;-73
2023/02/14 07:19:58;;;;;;;23.17;14.07;;;6.00;99.90;;;;;;5044049;28;20405;-69
2023/02/14 07:22:23;;;;;;;29.90;14.77;;;6.00;99.90;;;;;;5040840;28;20252;-73
2023/02/14 07:24:49;;;;;;;30.00;14.17;;;6.00;99.90;;;;;;5043605;28;20579;-68
2023/02/14 07:27:14;;;;;;;25.10;14.67;;;6.00;99.90;;;;;;5043726;28;20178;-73
2023/02/14 07:29:40;;;;;;;24.93;14.10;;;6.00;99.90;;;;;;5023720;28;20673;-73
2023/02/14 07:32:06;;;;;;;18.97;12.40;;;6.10;99.90;;;;;;5044828;28;20166;-73
2023/02/14 07:34:31;;;;;;;24.90;13.90;;;6.10;99.90;;;;;;5041666;28;20164;-73
2023/02/14 07:36:57;;;;;;;25.30;13.57;;;6.20;99.90;;;;;;5043502;28;20167;-72
2023/02/14 07:39:23;;;;;;;19.80;12.87;;;6.20;99.90;;;;;;5041899;28;20425;-72
2023/02/14 07:41:48;;;;;;;24.10;13.93;;;6.20;99.90;;;;;;5036114;28;20231;-73
2023/02/14 07:44:14;;;;;;;26.10;13.80;;;6.20;99.90;;;;;;5040355;28;20167;-73
2023/02/14 07:46:40;;;;;;;26.63;14.07;;;6.30;99.90;;;;;;5039941;28;20634;-73
2023/02/14 07:49:05;;;;;;;31.77;13.70;;;6.30;99.90;;;;;;5043726;28;20639;-72
2023/02/14 07:51:31;;;;;;;27.27;15.03;;;6.30;99.90;;;;;;5034773;28;20238;-71
2023/02/14 07:53:56;;;;;;;27.10;15.27;;;6.30;99.90;;;;;;5043487;28;20198;-73
2023/02/14 07:56:22;;;;;;;26.40;14.90;;;6.30;99.90;;;;;;5041887;28;20171;-73
2023/02/14 07:58:48;;;;;;;33.53;16.80;;;6.40;99.90;;;;;;5035173;28;20328;-74
2023/02/14 08:01:15;;;;;;;24.07;13.77;;;6.40;99.90;;;;;;5037975;28;20416;-73
2023/02/14 08:03:43;;;;;;;31.27;15.37;;;6.50;99.90;;;;;;5040616;28;20446;-73
2023/02/14 08:06:09;;;;;;;25.07;14.70;;;6.50;99.90;;;;;;5039437;28;20406;-74
2023/02/14 08:08:34;;;;;;;34.37;16.63;;;6.50;99.90;;;;;;5035014;28;20816;-74
2023/02/14 08:11:00;;;;;;;29.13;13.40;;;6.60;99.90;;;;;;5040145;28;20453;-74
2023/02/14 08:13:26;;;;;;;28.60;14.67;;;6.40;99.90;;;;;;5036074;28;20259;-73
2023/02/14 08:16:04;;;;;;;23.97;13.87;;;6.40;99.90;;;;;;5044938;28;20164;-74
2023/02/14 08:18:31;;;;;;;31.07;14.13;;;6.40;99.90;;;;;;5042867;28;20195;-74
2023/02/14 08:20:57;;;;;;;23.33;13.40;;;6.50;99.90;;;;;;5043216;28;20559;-72
2023/02/14 08:23:23;;;;;;;23.43;13.60;;;6.40;99.90;;;;;;5037748;28;20413;-74
2023/02/14 08:25:49;;;;;;;20.93;13.57;;;6.50;99.90;;;;;;5037335;28;20594;-73
2023/02/14 08:28:15;;;;;;;24.30;15.07;;;6.50;99.90;;;;;;5042058;28;20207;-72
2023/02/14 08:30:41;;;;;;;23.93;15.20;;;6.60;99.90;;;;;;5045235;28;20798;-73
2023/02/14 08:33:07;;;;;;;24.77;14.50;;;6.70;99.90;;;;;;5047479;28;20210;-73
2023/02/14 08:35:34;;;;;;;23.33;13.33;;;6.80;99.90;;;;;;5046366;28;20437;-73
2023/02/14 08:38:00;;;;;;;25.80;13.73;;;6.70;99.90;;;;;;5045473;28;20453;-74
2023/02/14 08:40:26;;;;;;;22.13;13.97;;;6.80;99.90;;;;;;5050218;28;20471;-73
2023/02/14 08:42:51;;;;;;;30.17;15.30;;;6.80;99.90;;;;;;5039600;28;20812;-74
2023/02/14 08:45:17;;;;;;;22.97;13.07;;;6.80;99.90;;;;;;5049493;28;20175;-71
2023/02/14 08:47:43;;;;;;;22.30;13.07;;;6.80;99.90;;;;;;5041790;28;20521;-73
2023/02/14 08:50:12;;;;;;;25.60;15.00;;;6.90;99.90;;;;;;5038372;28;20443;-75
2023/02/14 08:52:39;;;;;;;29.10;14.90;;;7.00;99.90;;;;;;5023774;28;20184;-74
2023/02/14 08:55:05;;;;;;;27.80;13.67;;;6.90;99.90;;;;;;5045063;28;20883;-73
2023/02/14 08:57:31;;;;;;;26.43;15.60;;;6.90;99.90;;;;;;5050302;28;20504;-73
2023/02/14 08:59:56;;;;;;;24.33;14.57;;;6.80;99.90;;;;;;5039410;28;20788;-74
2023/02/14 09:02:23;;;;;;;22.73;13.13;;;6.90;99.90;;;;;;5050546;28;20171;-72
2023/02/14 09:04:48;;;;;;;20.27;12.53;;;6.90;99.90;;;;;;5019983;28;20274;-72
2023/02/14 09:07:14;;;;;;;24.10;13.63;;;6.90;99.90;;;;;;5045046;28;20442;-73
2023/02/14 09:09:39;;;;;;;28.23;14.50;;;6.90;99.90;;;;;;5050854;28;20195;-73
2023/02/14 09:12:07;;;;;;;29.43;13.43;;;6.80;99.90;;;;;;5045785;28;20198;-73
2023/02/14 09:14:44;;;;;;;22.80;14.27;;;6.70;99.90;;;;;;5051588;28;20225;-73
2023/02/14 09:17:11;;;;;;;24.00;14.13;;;6.80;99.90;;;;;;5046459;28;20407;-72
2023/02/14 09:19:37;;;;;;;23.97;14.60;;;7.00;99.90;;;;;;5040880;28;20441;-73
2023/02/14 09:22:05;;;;;;;32.97;15.93;;;7.00;99.90;;;;;;5054877;28;20455;-72
2023/02/14 09:24:32;;;;;;;33.43;16.20;;;7.00;99.90;;;;;;5036417;28;20956;-72
2023/02/14 09:26:57;;;;;;;32.87;14.60;;;7.10;99.90;;;;;;5057478;28;20402;-74
2023/02/14 09:29:27;;;;;;;25.37;14.87;;;7.10;99.90;;;;;;5062642;28;20488;-72
2023/02/14 09:31:58;;;;;;;30.50;15.57;;;7.10;99.90;;;;;;5048957;28;20253;-72
2023/02/14 09:34:25;;;;;;;26.83;14.77;;;7.20;99.90;;;;;;5048438;28;20448;-72
2023/02/14 09:36:50;;;;;;;26.30;14.83;;;7.10;99.90;;;;;;5051369;28;20754;-73
2023/02/14 09:39:16;;;;;;;33.37;16.37;;;7.10;99.90;;;;;;5056727;28;20433;-72
2023/02/14 09:42:19;;;;;;;31.03;15.70;;;7.10;99.90;;;;;;5038901;28;20200;-73
2023/02/14 09:44:50;;;;;;;28.50;15.30;;;7.10;99.90;;;;;;5046993;28;20557;-68
2023/02/14 09:47:19;;;;;;;25.20;13.33;;;7.30;99.90;;;;;;5042365;28;20416;-72
2023/02/14 09:49:45;;;;;;;25.13;13.50;;;7.30;99.90;;;;;;5041266;28;20430;-70
2023/02/14 09:52:14;;;;;;;23.40;14.93;;;7.30;99.90;;;;;;5042548;28;20774;-71
2023/02/14 09:54:45;;;;;;;26.13;14.10;;;7.50;99.90;;;;;;5051324;28;20416;-74
2023/02/14 09:57:26;;;;;;;27.63;15.47;;;7.40;99.90;;;;;;5047019;28;20811;-73
2023/02/14 09:59:56;;;;;;;26.73;15.80;;;7.50;99.90;;;;;;5044736;28;20460;-72
2023/02/14 10:02:54;;;;;;;29.10;15.20;;;7.50;99.90;;;;;;5035395;28;20944;-73
2023/02/14 10:05:27;;;;;;;31.80;16.27;;;7.30;99.90;;;;;;5032075;28;20415;-72
2023/02/14 10:08:02;;;;;;;30.80;14.73;;;7.50;99.90;;;;;;5032510;28;20500;-71
2023/02/14 10:10:40;;;;;;;28.97;15.10;;;7.40;99.90;;;;;;5037664;28;20477;-72
2023/02/14 10:13:25;;;;;;;29.67;14.67;;;7.50;99.90;;;;;;5039012;28;20437;-72
2023/02/14 10:16:01;;;;;;;25.20;14.50;;;7.50;99.90;;;;;;5032045;28;20705;-72
2023/02/14 10:18:33;;;;;;;28.83;15.63;;;7.60;99.90;;;;;;5042474;28;20429;-72
2023/02/14 10:21:02;;;;;;;29.37;15.10;;;7.50;99.90;;;;;;5035125;28;20433;-73
2023/02/14 10:23:55;;;;;;;28.40;14.60;;;7.60;99.90;;;;;;5046665;28;20414;-72
2023/02/14 10:26:32;;;;;;;23.97;14.83;;;7.60;99.90;;;;;;5044038;28;20751;-73
2023/02/14 10:28:57;;;;;;;31.87;14.90;;;7.50;99.90;;;;;;5022467;28;21037;-72
2023/02/14 10:31:38;;;;;;;27.00;14.17;;;7.60;99.90;;;;;;5045607;28;20485;-72
2023/02/14 10:34:22;;;;;;;27.13;15.20;;;7.60;99.90;;;;;;5039400;28;20225;-72
2023/02/14 10:37:21;;;;;;;25.80;14.63;;;7.80;99.90;;;;;;5045495;28;20399;-70
2023/02/14 10:40:25;;;;;;;30.13;14.23;;;7.80;99.90;;;;;;5025305;28;21012;-71
2023/02/14 10:43:14;;;;;;;21.03;14.33;;;7.60;99.90;;;;;;5037216;28;20422;-73
2023/02/14 10:46:12;;;;;;;26.50;14.73;;;7.80;99.90;;;;;;5047827;28;20839;-73
2023/02/14 10:48:55;;;;;;;31.63;16.47;;;7.90;99.90;;;;;;5035116;28;20424;-73
2023/02/14 10:51:49;;;;;;;26.10;14.70;;;7.80;99.90;;;;;;5033658;28;20545;-71
2023/02/14 10:54:21;;;;;;;26.37;14.53;;;7.80;99.90;;;;;;5037871;28;20405;-72
2023/02/14 10:56:57;;;;;;;25.30;14.43;;;7.80;99.90;;;;;;5038550;28;20421;-73
2023/02/14 10:59:33;;;;;;;25.20;15.33;;;7.90;99.90;;;;;;5031504;28;20428;-73
2023/02/14 11:02:00;;;;;;;23.37;14.90;;;7.90;99.90;;;;;;5036041;28;20760;-73
2023/02/14 11:04:28;;;;;;;23.90;13.20;;;7.90;99.90;;;;;;5017358;28;20443;-73
2023/02/14 11:06:54;;;;;;;26.00;16.07;;;7.90;99.90;;;;;;5037893;28;20523;-74
2023/02/14 11:09:20;;;;;;;24.53;14.20;;;7.90;99.90;;;;;;5039066;28;20987;-73
2023/02/14 11:11:55;;;;;;;27.50;15.00;;;7.80;99.90;;;;;;5040126;28;20652;-74
2023/02/14 11:14:24;;;;;;;25.73;12.90;;;8.00;99.90;;;;;;5044810;28;20472;-73
2023/02/14 11:16:51;;;;;;;20.50;12.70;;;8.00;99.90;;;;;;5035435;28;20411;-73
2023/02/14 11:19:26;;;;;;;23.83;14.80;;;7.90;99.90;;;;;;5046040;28;20455;-74
2023/02/14 11:21:53;;;;;;;23.37;14.20;;;8.00;99.90;;;;;;5034549;28;20905;-73
2023/02/14 11:24:44;;;;;;;31.47;15.87;;;8.00;99.90;;;;;;5031549;28;20908;-73
2023/02/14 11:27:10;;;;;;;20.07;13.63;;;8.10;99.90;;;;;;5016091;28;20811;-73
2023/02/14 11:29:38;;;;;;;23.13;14.13;;;8.00;99.90;;;;;;5038749;28;20446;-71
2023/02/14 11:32:11;;;;;;;23.80;14.63;;;7.80;99.90;;;;;;5043037;28;20201;-73
2023/02/14 11:35:05;;;;;;;23.30;15.03;;;8.00;99.90;;;;;;5021351;28;20744;-73
2023/02/14 11:37:41;;;;;;;26.10;14.60;;;7.90;99.90;;;;;;5038672;28;20467;-74
2023/02/14 11:40:43;;;;;;;23.67;13.37;;;7.80;99.90;;;;;;5036382;28;20397;-73
2023/02/14 11:43:14;;;;;;;29.30;15.13;;;8.00;99.90;;;;;;5023994;28;20841;-73
2023/02/14 11:45:41;;;;;;;27.40;14.83;;;8.20;99.90;;;;;;5037819;28;20409;-71
2023/02/14 11:48:24;;;;;;;18.17;12.27;;;8.30;99.90;;;;;;5032946;28;20426;-72
2023/02/14 11:50:54;;;;;;;22.90;14.00;;;8.30;99.90;;;;;;5008745;28;20498;-72
2023/02/14 11:53:24;;;;;;;25.27;14.23;;;8.20;99.90;;;;;;5040825;28;20407;-72
2023/02/14 11:55:55;;;;;;;22.57;13.87;;;8.10;99.90;;;;;;5027239;28;20922;-72
2023/02/14 11:58:35;;;;;;;25.90;13.93;;;8.20;99.90;;;;;;5039690;28;20430;-72
2023/02/14 12:01:01;;;;;;;20.83;14.20;;;8.20;99.90;;;;;;5031212;28;20450;-71
2023/02/14 12:03:33;;;;;;;27.07;13.73;;;8.20;99.90;;;;;;5025584;28;20506;-72
2023/02/14 12:05:59;;;;;;;26.60;14.60;;;8.30;99.90;;;;;;5046439;28;20430;-72
2023/02/14 12:08:28;;;;;;;19.57;12.47;;;8.30;99.90;;;;;;5044125;28;20434;-72
2023/02/14 12:11:03;;;;;;;25.83;15.07;;;8.10;99.90;;;;;;5041668;28;20524;-73
2023/02/14 12:13:29;;;;;;;24.47;14.57;;;8.20;99.90;;;;;;5048080;28;20451;-72
2023/02/14 12:15:57;;;;;;;23.73;13.40;;;8.20;99.90;;;;;;5040778;28;20426;-72
2023/02/14 12:18:48;;;;;;;22.33;14.80;;;8.20;99.90;;;;;;5044123;28;20439;-72
2023/02/14 12:21:24;;;;;;;23.77;15.60;;;8.30;99.90;;;;;;5026787;28;20435;-72
2023/02/14 12:24:05;;;;;;;25.67;13.80;;;8.30;99.90;;;;;;5040298;28;20448;-73
2023/02/14 12:26:39;;;;;;;22.10;13.30;;;8.10;99.90;;;;;;5042744;28;20470;-73
2023/02/14 12:29:19;;;;;;;22.47;15.97;;;8.00;99.90;;;;;;5042259;28;20441;-74
2023/02/14 12:31:46;;;;;;;20.30;13.17;;;7.90;99.90;;;;;;5065355;22;20498;-72
2023/02/14 12:34:13;;;;;;;22.40;15.10;;;7.90;99.90;;;;;;5039085;28;20418;-71
2023/02/14 12:36:48;;;;;;;23.20;14.30;;;7.90;99.90;;;;;;5039990;28;20407;-71
2023/02/14 12:39:28;;;;;;;24.33;15.03;;;8.00;99.90;;;;;;5036730;28;20408;-72
2023/02/14 12:42:20;;;;;;;24.93;15.73;;;8.00;99.90;;;;;;5037745;28;20429;-72
2023/02/14 12:45:13;;;;;;;21.90;14.40;;;8.00;99.90;;;;;;5021805;28;20410;-72
2023/02/14 12:48:23;;;;;;;27.03;14.47;;;8.30;99.90;;;;;;5021758;28;20414;-71
2023/02/14 12:51:12;;;;;;;26.00;13.50;;;8.40;99.90;;;;;;5045221;28;20448;-72
2023/02/14 12:54:01;;;;;;;19.47;13.27;;;8.30;99.90;;;;;;5046883;28;20456;-71
2023/02/14 12:56:49;;;;;;;23.50;13.10;;;8.30;99.90;;;;;;5039420;28;20434;-71
2023/02/14 12:59:39;;;;;;;24.63;14.20;;;8.20;99.90;;;;;;5048318;28;20779;-72
2023/02/14 13:02:33;;;;;;;26.87;13.87;;;8.00;99.90;;;;;;5038136;28;20463;-72
2023/02/14 13:05:13;;;;;;;25.43;12.47;;;8.20;99.90;;;;;;5034264;28;21010;-72
2023/02/14 13:08:03;;;;;;;22.07;12.40;;;8.20;99.90;;;;;;5046000;28;20463;-72
2023/02/14 13:10:44;;;;;;;23.90;14.17;;;8.20;99.90;;;;;;5046853;28;20536;-71
2023/02/14 13:14:04;;;;;;;20.20;13.03;;;8.20;99.90;;;;;;5024709;28;20426;-71
2023/02/14 13:16:53;;;;;;;21.47;12.33;;;8.10;99.90;;;;;;4980555;28;20449;-72
2023/02/14 13:19:40;;;;;;;22.97;14.13;;;8.30;99.90;;;;;;4980558;28;20418;-72
2023/02/14 13:22:10;;;;;;;22.83;13.37;;;8.20;99.90;;;;;;5031672;28;20436;-72
2023/02/14 13:24:45;;;;;;;21.23;13.37;;;8.30;99.90;;;;;;5040042;28;20416;-72
2023/02/14 13:27:23;;;;;;;18.80;11.00;;;8.20;99.90;;;;;;5050973;28;20917;-72
2023/02/14 13:29:58;;;;;;;19.70;13.50;;;8.20;99.90;;;;;;5039240;28;20409;-72